Huvudsida
METAR-TAF:

METAR-TAF

Flygplatser :

Mehrabads flygplats

Teheran, Iran

latitud: 35-41N, longitud: 051-21E, höjd: 1204 m

Aktuellt väderrapport

Denna rapport gjordes för 35 minuter sedan, klockan 12:30 UTC
Vind 12 kt från väst/sydväst
Temperatur 15°C
Fuktighet 20%
Tryck 1019 hPa
Sikt 10 km eller mer
Inga moln under 1 500 m eller inga cumulonimbus

METAR: OIII 121230Z 24012KT CAVOK 15/M08 Q1019 A3010

Tid: 16:35 (13:05 UTC)

Väderprognos

Denna rapport gjordes för 2 timmar och 5 minuter sedan, klockan 11:00 UTC
Prognos gäller från 12 kl. 12 UTC till 13 kl. 18 UTC
Vind 10 kt från väst/sydväst
Sikt: 7000 m
Blir
från 13 kl. 03 UTC till 13 kl. 05 UTC
Sikt: 4000 m
torrdis
Blir
från 13 kl. 08 UTC till 13 kl. 09 UTC
Sikt: 7000 m

TAF: OIII 121100Z 1212/1318 24005MPS 7000 NSC BECMG 1303/1305 4000 HZ BECMG 1308/1309 7000 NSC

Aktuella väderrapporter och prognoser från 4000 flygplatser (METAR- och TAF-rapporter).

De tillgängliga stationerna syns som gula och röda prickar på kartan.

För musen över prickarna för att se namnen på stationerna.

Klicka sedan för att få väderrapporter och prognoser.

För att ändra kartan: Klicka på de gröna knapparna med ett svart kors på för att zooma in; den gröna knappen med ett streck på för att zooma ut; eller på de gröna pilarna för angränsande kartor.


METAR-TAF: